sensor_id;sensor_type;location;lat;lon;timestamp;temperature;humidity
41838;DHT22;27511;52.042;5.178;2023-02-28T00:00:19;5.80;99.90
41838;DHT22;27511;52.042;5.178;2023-02-28T00:02:44;5.70;99.90
41838;DHT22;27511;52.042;5.178;2023-02-28T00:05:11;5.80;99.90
41838;DHT22;27511;52.042;5.178;2023-02-28T00:07:37;5.80;99.90
41838;DHT22;27511;52.042;5.178;2023-02-28T00:10:03;5.80;99.90
41838;DHT22;27511;52.042;5.178;2023-02-28T00:12:29;5.80;99.90
41838;DHT22;27511;52.042;5.178;2023-02-28T00:14:57;5.70;99.90
41838;DHT22;27511;52.042;5.178;2023-02-28T00:17:23;5.80;99.90
41838;DHT22;27511;52.042;5.178;2023-02-28T00:19:49;5.80;99.90
41838;DHT22;27511;52.042;5.178;2023-02-28T00:22:15;5.80;99.90
41838;DHT22;27511;52.042;5.178;2023-02-28T00:24:41;5.90;99.90
41838;DHT22;27511;52.042;5.178;2023-02-28T00:27:06;5.80;99.90
41838;DHT22;27511;52.042;5.178;2023-02-28T00:29:34;5.80;99.90
41838;DHT22;27511;52.042;5.178;2023-02-28T00:32:00;5.90;99.90
41838;DHT22;27511;52.042;5.178;2023-02-28T00:34:25;5.90;99.90
41838;DHT22;27511;52.042;5.178;2023-02-28T00:36:50;5.90;99.90
41838;DHT22;27511;52.042;5.178;2023-02-28T00:39:16;5.80;99.90
41838;DHT22;27511;52.042;5.178;2023-02-28T00:41:41;5.80;99.90
41838;DHT22;27511;52.042;5.178;2023-02-28T00:44:07;5.90;99.90
41838;DHT22;27511;52.042;5.178;2023-02-28T00:46:35;5.90;99.90
41838;DHT22;27511;52.042;5.178;2023-02-28T00:49:00;6.20;99.90
41838;DHT22;27511;52.042;5.178;2023-02-28T00:51:26;6.00;99.90
41838;DHT22;27511;52.042;5.178;2023-02-28T00:53:51;6.10;99.90
41838;DHT22;27511;52.042;5.178;2023-02-28T00:56:17;6.10;99.90
41838;DHT22;27511;52.042;5.178;2023-02-28T00:58:42;6.10;99.90
41838;DHT22;27511;52.042;5.178;2023-02-28T01:01:08;6.10;99.90
41838;DHT22;27511;52.042;5.178;2023-02-28T01:03:34;6.10;99.90
41838;DHT22;27511;52.042;5.178;2023-02-28T01:05:59;6.30;99.90
41838;DHT22;27511;52.042;5.178;2023-02-28T01:08:25;6.20;99.90
41838;DHT22;27511;52.042;5.178;2023-02-28T01:10:51;6.20;99.90
41838;DHT22;27511;52.042;5.178;2023-02-28T01:13:17;6.20;99.90
41838;DHT22;27511;52.042;5.178;2023-02-28T01:15:49;6.30;99.90
41838;DHT22;27511;52.042;5.178;2023-02-28T01:18:16;6.40;99.90
41838;DHT22;27511;52.042;5.178;2023-02-28T01:20:41;6.30;99.90
41838;DHT22;27511;52.042;5.178;2023-02-28T01:23:07;6.50;99.90
41838;DHT22;27511;52.042;5.178;2023-02-28T01:25:34;6.40;99.90
41838;DHT22;27511;52.042;5.178;2023-02-28T01:27:59;6.30;99.90
41838;DHT22;27511;52.042;5.178;2023-02-28T01:30:25;6.30;99.90
41838;DHT22;27511;52.042;5.178;2023-02-28T01:32:50;6.40;99.90
41838;DHT22;27511;52.042;5.178;2023-02-28T01:35:18;6.40;99.90
41838;DHT22;27511;52.042;5.178;2023-02-28T01:37:44;6.50;99.90
41838;DHT22;27511;52.042;5.178;2023-02-28T01:40:10;6.50;99.90
41838;DHT22;27511;52.042;5.178;2023-02-28T01:42:35;6.50;99.90
41838;DHT22;27511;52.042;5.178;2023-02-28T01:47:31;6.50;99.90
41838;DHT22;27511;52.042;5.178;2023-02-28T01:49:58;6.50;99.90
41838;DHT22;27511;52.042;5.178;2023-02-28T01:52:25;6.60;99.90
41838;DHT22;27511;52.042;5.178;2023-02-28T01:54:52;6.60;99.90
41838;DHT22;27511;52.042;5.178;2023-02-28T01:57:20;6.60;99.90
41838;DHT22;27511;52.042;5.178;2023-02-28T01:59:52;6.70;99.90
41838;DHT22;27511;52.042;5.178;2023-02-28T02:02:20;6.70;99.90
41838;DHT22;27511;52.042;5.178;2023-02-28T02:04:55;6.60;99.90
41838;DHT22;27511;52.042;5.178;2023-02-28T02:07:21;6.70;99.90
41838;DHT22;27511;52.042;5.178;2023-02-28T02:09:48;6.60;99.90
41838;DHT22;27511;52.042;5.178;2023-02-28T02:15:21;6.50;99.90
41838;DHT22;27511;52.042;5.178;2023-02-28T02:17:48;6.60;99.90
41838;DHT22;27511;52.042;5.178;2023-02-28T02:20:38;6.60;99.90
41838;DHT22;27511;52.042;5.178;2023-02-28T02:25:54;6.70;99.90
41838;DHT22;27511;52.042;5.178;2023-02-28T02:35:56;6.60;99.90
41838;DHT22;27511;52.042;5.178;2023-02-28T02:38:31;6.70;99.90
41838;DHT22;27511;52.042;5.178;2023-02-28T02:41:10;6.70;99.90
41838;DHT22;27511;52.042;5.178;2023-02-28T02:43:47;6.70;99.90
41838;DHT22;27511;52.042;5.178;2023-02-28T02:48:45;6.70;99.90
41838;DHT22;27511;52.042;5.178;2023-02-28T02:51:13;6.80;99.90
41838;DHT22;27511;52.042;5.178;2023-02-28T02:53:54;6.70;99.90
41838;DHT22;27511;52.042;5.178;2023-02-28T02:56:21;6.70;99.90
41838;DHT22;27511;52.042;5.178;2023-02-28T02:58:49;6.80;99.90
41838;DHT22;27511;52.042;5.178;2023-02-28T03:01:16;6.80;99.90
41838;DHT22;27511;52.042;5.178;2023-02-28T03:04:03;6.80;99.90
41838;DHT22;27511;52.042;5.178;2023-02-28T03:06:29;7.00;99.90
41838;DHT22;27511;52.042;5.178;2023-02-28T03:08:54;6.80;99.90
41838;DHT22;27511;52.042;5.178;2023-02-28T03:11:20;6.80;99.90
41838;DHT22;27511;52.042;5.178;2023-02-28T03:14:01;6.80;99.90
41838;DHT22;27511;52.042;5.178;2023-02-28T03:19:03;6.80;99.90
41838;DHT22;27511;52.042;5.178;2023-02-28T03:26:22;6.90;99.90
41838;DHT22;27511;52.042;5.178;2023-02-28T03:31:26;6.90;99.90
41838;DHT22;27511;52.042;5.178;2023-02-28T03:33:59;6.90;99.90
41838;DHT22;27511;52.042;5.178;2023-02-28T03:36:27;6.90;99.90
41838;DHT22;27511;52.042;5.178;2023-02-28T03:38:58;6.90;99.90
41838;DHT22;27511;52.042;5.178;2023-02-28T03:41:31;6.90;99.90
41838;DHT22;27511;52.042;5.178;2023-02-28T03:43:59;6.90;99.90
41838;DHT22;27511;52.042;5.178;2023-02-28T03:46:27;6.90;99.90
41838;DHT22;27511;52.042;5.178;2023-02-28T03:49:16;7.00;99.90
41838;DHT22;27511;52.042;5.178;2023-02-28T03:51:40;7.00;99.90
41838;DHT22;27511;52.042;5.178;2023-02-28T03:54:07;7.00;99.90
41838;DHT22;27511;52.042;5.178;2023-02-28T03:56:38;7.00;99.90
41838;DHT22;27511;52.042;5.178;2023-02-28T04:03:56;7.00;99.90
41838;DHT22;27511;52.042;5.178;2023-02-28T04:06:22;7.00;99.90
41838;DHT22;27511;52.042;5.178;2023-02-28T04:08:48;7.00;99.90
41838;DHT22;27511;52.042;5.178;2023-02-28T04:13:39;7.00;99.90
41838;DHT22;27511;52.042;5.178;2023-02-28T04:16:08;7.00;99.90
41838;DHT22;27511;52.042;5.178;2023-02-28T04:18:40;6.90;99.90
41838;DHT22;27511;52.042;5.178;2023-02-28T04:21:06;6.90;99.90
41838;DHT22;27511;52.042;5.178;2023-02-28T04:23:32;6.90;99.90
41838;DHT22;27511;52.042;5.178;2023-02-28T04:25:57;7.00;99.90
41838;DHT22;27511;52.042;5.178;2023-02-28T04:28:23;6.90;99.90
41838;DHT22;27511;52.042;5.178;2023-02-28T04:31:02;7.00;99.90
41838;DHT22;27511;52.042;5.178;2023-02-28T04:33:28;6.90;99.90
41838;DHT22;27511;52.042;5.178;2023-02-28T04:36:04;6.90;99.90
41838;DHT22;27511;52.042;5.178;2023-02-28T04:38:32;6.90;99.90
41838;DHT22;27511;52.042;5.178;2023-02-28T04:40:58;6.80;99.90
41838;DHT22;27511;52.042;5.178;2023-02-28T04:43:24;6.70;99.90
41838;DHT22;27511;52.042;5.178;2023-02-28T04:45:49;6.70;99.90
41838;DHT22;27511;52.042;5.178;2023-02-28T04:48:14;6.80;99.90
41838;DHT22;27511;52.042;5.178;2023-02-28T04:50:40;6.80;99.90
41838;DHT22;27511;52.042;5.178;2023-02-28T04:53:05;6.80;99.90
41838;DHT22;27511;52.042;5.178;2023-02-28T04:55:31;6.80;99.90
41838;DHT22;27511;52.042;5.178;2023-02-28T04:57:56;6.70;99.90
41838;DHT22;27511;52.042;5.178;2023-02-28T05:00:23;6.60;99.90
41838;DHT22;27511;52.042;5.178;2023-02-28T05:02:48;6.60;99.90
41838;DHT22;27511;52.042;5.178;2023-02-28T05:05:14;6.70;99.90
41838;DHT22;27511;52.042;5.178;2023-02-28T05:07:43;6.70;99.90
41838;DHT22;27511;52.042;5.178;2023-02-28T05:10:09;6.60;99.90
41838;DHT22;27511;52.042;5.178;2023-02-28T05:12:35;6.50;99.90
41838;DHT22;27511;52.042;5.178;2023-02-28T05:15:00;6.60;99.90
41838;DHT22;27511;52.042;5.178;2023-02-28T05:17:27;6.60;99.90
41838;DHT22;27511;52.042;5.178;2023-02-28T05:19:52;6.60;99.90
41838;DHT22;27511;52.042;5.178;2023-02-28T05:22:18;6.40;99.90
41838;DHT22;27511;52.042;5.178;2023-02-28T05:24:43;6.30;99.90
41838;DHT22;27511;52.042;5.178;2023-02-28T05:27:09;6.30;99.90
41838;DHT22;27511;52.042;5.178;2023-02-28T05:29:35;6.00;99.90
41838;DHT22;27511;52.042;5.178;2023-02-28T05:32:10;6.10;99.90
41838;DHT22;27511;52.042;5.178;2023-02-28T05:34:39;6.20;99.90
41838;DHT22;27511;52.042;5.178;2023-02-28T05:37:05;6.30;99.90
41838;DHT22;27511;52.042;5.178;2023-02-28T05:39:31;6.30;99.90
41838;DHT22;27511;52.042;5.178;2023-02-28T05:41:56;6.30;99.90
41838;DHT22;27511;52.042;5.178;2023-02-28T05:44:22;6.30;99.90
41838;DHT22;27511;52.042;5.178;2023-02-28T05:46:47;6.30;99.90
41838;DHT22;27511;52.042;5.178;2023-02-28T05:49:13;6.40;99.90
41838;DHT22;27511;52.042;5.178;2023-02-28T05:51:38;6.20;99.90
41838;DHT22;27511;52.042;5.178;2023-02-28T05:54:06;6.10;99.90
41838;DHT22;27511;52.042;5.178;2023-02-28T05:56:32;6.20;99.90
41838;DHT22;27511;52.042;5.178;2023-02-28T05:59:17;6.30;99.90
41838;DHT22;27511;52.042;5.178;2023-02-28T06:04:32;6.20;99.90
41838;DHT22;27511;52.042;5.178;2023-02-28T06:06:57;6.30;99.90
41838;DHT22;27511;52.042;5.178;2023-02-28T06:09:23;6.30;99.90
41838;DHT22;27511;52.042;5.178;2023-02-28T06:11:48;6.20;99.90
41838;DHT22;27511;52.042;5.178;2023-02-28T06:14:15;6.20;99.90
41838;DHT22;27511;52.042;5.178;2023-02-28T06:16:40;6.20;99.90
41838;DHT22;27511;52.042;5.178;2023-02-28T06:19:06;6.20;99.90
41838;DHT22;27511;52.042;5.178;2023-02-28T06:21:31;6.20;99.90
41838;DHT22;27511;52.042;5.178;2023-02-28T06:23:57;6.30;99.90
41838;DHT22;27511;52.042;5.178;2023-02-28T06:26:23;6.10;99.90
41838;DHT22;27511;52.042;5.178;2023-02-28T06:28:48;6.20;99.90
41838;DHT22;27511;52.042;5.178;2023-02-28T06:31:15;6.10;99.90
41838;DHT22;27511;52.042;5.178;2023-02-28T06:33:41;6.00;99.90
41838;DHT22;27511;52.042;5.178;2023-02-28T06:36:08;6.00;99.90
41838;DHT22;27511;52.042;5.178;2023-02-28T06:38:33;6.10;99.90
41838;DHT22;27511;52.042;5.178;2023-02-28T06:40:59;6.10;99.90
41838;DHT22;27511;52.042;5.178;2023-02-28T06:43:27;6.10;99.90
41838;DHT22;27511;52.042;5.178;2023-02-28T06:45:56;6.00;99.90
41838;DHT22;27511;52.042;5.178;2023-02-28T06:48:22;6.00;99.90
41838;DHT22;27511;52.042;5.178;2023-02-28T06:50:47;5.90;99.90
41838;DHT22;27511;52.042;5.178;2023-02-28T06:53:13;5.90;99.90
41838;DHT22;27511;52.042;5.178;2023-02-28T06:55:39;6.00;99.90
41838;DHT22;27511;52.042;5.178;2023-02-28T06:58:04;6.10;99.90
41838;DHT22;27511;52.042;5.178;2023-02-28T07:00:40;6.10;99.90
41838;DHT22;27511;52.042;5.178;2023-02-28T07:03:06;6.10;99.90
41838;DHT22;27511;52.042;5.178;2023-02-28T07:05:31;6.10;99.90
41838;DHT22;27511;52.042;5.178;2023-02-28T07:07:57;6.00;99.90
41838;DHT22;27511;52.042;5.178;2023-02-28T07:10:22;6.00;99.90
41838;DHT22;27511;52.042;5.178;2023-02-28T07:12:48;5.90;99.90
41838;DHT22;27511;52.042;5.178;2023-02-28T07:15:13;6.00;99.90
41838;DHT22;27511;52.042;5.178;2023-02-28T07:17:38;6.00;99.90
41838;DHT22;27511;52.042;5.178;2023-02-28T07:20:04;6.10;99.90
41838;DHT22;27511;52.042;5.178;2023-02-28T07:22:30;6.10;99.90
41838;DHT22;27511;52.042;5.178;2023-02-28T07:24:55;6.10;99.90
41838;DHT22;27511;52.042;5.178;2023-02-28T07:27:21;6.10;99.90
41838;DHT22;27511;52.042;5.178;2023-02-28T07:29:51;6.10;99.90
41838;DHT22;27511;52.042;5.178;2023-02-28T07:32:17;6.10;99.90
41838;DHT22;27511;52.042;5.178;2023-02-28T07:34:43;6.20;99.90
41838;DHT22;27511;52.042;5.178;2023-02-28T07:37:09;6.20;99.90
41838;DHT22;27511;52.042;5.178;2023-02-28T07:39:34;6.20;99.90
41838;DHT22;27511;52.042;5.178;2023-02-28T07:42:00;6.30;99.90
41838;DHT22;27511;52.042;5.178;2023-02-28T07:44:28;6.20;99.90
41838;DHT22;27511;52.042;5.178;2023-02-28T07:46:54;6.30;99.90
41838;DHT22;27511;52.042;5.178;2023-02-28T07:49:19;6.30;99.90
41838;DHT22;27511;52.042;5.178;2023-02-28T07:51:45;6.30;99.90
41838;DHT22;27511;52.042;5.178;2023-02-28T07:54:10;6.40;99.90
41838;DHT22;27511;52.042;5.178;2023-02-28T07:56:36;6.30;99.90
41838;DHT22;27511;52.042;5.178;2023-02-28T07:59:01;6.40;99.90
41838;DHT22;27511;52.042;5.178;2023-02-28T08:01:27;6.40;99.90
41838;DHT22;27511;52.042;5.178;2023-02-28T08:03:52;6.50;99.90
41838;DHT22;27511;52.042;5.178;2023-02-28T08:06:21;6.50;99.90
41838;DHT22;27511;52.042;5.178;2023-02-28T08:08:46;6.50;99.90
41838;DHT22;27511;52.042;5.178;2023-02-28T08:11:12;6.60;99.90
41838;DHT22;27511;52.042;5.178;2023-02-28T08:13:37;6.60;99.90
41838;DHT22;27511;52.042;5.178;2023-02-28T08:16:03;6.60;99.90
41838;DHT22;27511;52.042;5.178;2023-02-28T08:18:28;6.50;99.90
41838;DHT22;27511;52.042;5.178;2023-02-28T08:20:54;6.60;99.90
41838;DHT22;27511;52.042;5.178;2023-02-28T08:23:19;6.60;99.90
41838;DHT22;27511;52.042;5.178;2023-02-28T08:25:52;6.60;99.90
41838;DHT22;27511;52.042;5.178;2023-02-28T08:28:17;6.60;99.90
41838;DHT22;27511;52.042;5.178;2023-02-28T08:30:43;6.60;99.90
41838;DHT22;27511;52.042;5.178;2023-02-28T08:33:08;6.60;99.90
41838;DHT22;27511;52.042;5.178;2023-02-28T08:35:35;6.70;99.90
41838;DHT22;27511;52.042;5.178;2023-02-28T08:38:00;6.60;99.90
41838;DHT22;27511;52.042;5.178;2023-02-28T08:40:26;6.60;99.90
41838;DHT22;27511;52.042;5.178;2023-02-28T08:42:51;6.70;99.90
41838;DHT22;27511;52.042;5.178;2023-02-28T08:45:17;6.70;99.90
41838;DHT22;27511;52.042;5.178;2023-02-28T08:47:42;6.80;99.90
41838;DHT22;27511;52.042;5.178;2023-02-28T08:50:10;6.70;99.90
41838;DHT22;27511;52.042;5.178;2023-02-28T08:52:36;6.80;99.90
41838;DHT22;27511;52.042;5.178;2023-02-28T08:55:01;6.90;99.90
41838;DHT22;27511;52.042;5.178;2023-02-28T08:57:27;7.00;99.90
41838;DHT22;27511;52.042;5.178;2023-02-28T08:59:52;7.00;99.90
41838;DHT22;27511;52.042;5.178;2023-02-28T09:02:18;7.00;99.90
41838;DHT22;27511;52.042;5.178;2023-02-28T09:04:43;7.00;99.90
41838;DHT22;27511;52.042;5.178;2023-02-28T09:07:11;6.90;99.90
41838;DHT22;27511;52.042;5.178;2023-02-28T09:09:36;6.80;99.90
41838;DHT22;27511;52.042;5.178;2023-02-28T09:12:01;6.90;99.90
41838;DHT22;27511;52.042;5.178;2023-02-28T09:14:27;6.90;99.90
41838;DHT22;27511;52.042;5.178;2023-02-28T09:16:52;7.00;99.90
41838;DHT22;27511;52.042;5.178;2023-02-28T09:19:18;7.10;99.90
41838;DHT22;27511;52.042;5.178;2023-02-28T09:21:43;7.10;99.90
41838;DHT22;27511;52.042;5.178;2023-02-28T09:24:09;7.20;99.90
41838;DHT22;27511;52.042;5.178;2023-02-28T09:26:36;7.30;99.90
41838;DHT22;27511;52.042;5.178;2023-02-28T09:29:02;7.20;99.90
41838;DHT22;27511;52.042;5.178;2023-02-28T09:31:29;7.20;99.90
41838;DHT22;27511;52.042;5.178;2023-02-28T09:33:57;7.20;99.90
41838;DHT22;27511;52.042;5.178;2023-02-28T09:36:24;7.20;99.90
41838;DHT22;27511;52.042;5.178;2023-02-28T09:38:51;7.50;99.90
41838;DHT22;27511;52.042;5.178;2023-02-28T09:41:19;7.50;99.90
41838;DHT22;27511;52.042;5.178;2023-02-28T09:43:46;7.50;99.90
41838;DHT22;27511;52.042;5.178;2023-02-28T09:48:57;7.80;99.90
41838;DHT22;27511;52.042;5.178;2023-02-28T09:51:30;7.70;99.90
41838;DHT22;27511;52.042;5.178;2023-02-28T09:53:56;7.70;99.90
41838;DHT22;27511;52.042;5.178;2023-02-28T09:56:22;7.80;99.90
41838;DHT22;27511;52.042;5.178;2023-02-28T09:58:53;7.80;99.90
41838;DHT22;27511;52.042;5.178;2023-02-28T10:01:31;7.80;99.90
41838;DHT22;27511;52.042;5.178;2023-02-28T10:04:03;7.80;99.90
41838;DHT22;27511;52.042;5.178;2023-02-28T10:06:39;8.00;99.90
41838;DHT22;27511;52.042;5.178;2023-02-28T10:09:08;8.10;99.90
41838;DHT22;27511;52.042;5.178;2023-02-28T10:11:38;7.90;99.90
41838;DHT22;27511;52.042;5.178;2023-02-28T10:14:12;8.10;99.90
41838;DHT22;27511;52.042;5.178;2023-02-28T10:24:42;8.40;99.90
41838;DHT22;27511;52.042;5.178;2023-02-28T10:27:15;8.50;99.90
41838;DHT22;27511;52.042;5.178;2023-02-28T10:29:43;8.50;99.90
41838;DHT22;27511;52.042;5.178;2023-02-28T10:32:09;8.30;99.90
41838;DHT22;27511;52.042;5.178;2023-02-28T10:34:36;8.30;99.90
41838;DHT22;27511;52.042;5.178;2023-02-28T10:37:02;8.30;99.90
41838;DHT22;27511;52.042;5.178;2023-02-28T10:42:01;8.40;99.90
41838;DHT22;27511;52.042;5.178;2023-02-28T10:44:27;8.60;99.90
41838;DHT22;27511;52.042;5.178;2023-02-28T10:46:52;8.60;99.90
41838;DHT22;27511;52.042;5.178;2023-02-28T10:51:47;8.60;99.90
41838;DHT22;27511;52.042;5.178;2023-02-28T10:54:15;8.40;99.90
41838;DHT22;27511;52.042;5.178;2023-02-28T10:56:40;8.60;99.90
41838;DHT22;27511;52.042;5.178;2023-02-28T10:59:27;8.50;99.90
41838;DHT22;27511;52.042;5.178;2023-02-28T11:01:53;8.60;99.90
41838;DHT22;27511;52.042;5.178;2023-02-28T11:04:20;8.60;99.90
41838;DHT22;27511;52.042;5.178;2023-02-28T11:07:02;8.60;99.90
41838;DHT22;27511;52.042;5.178;2023-02-28T11:09:35;8.50;99.90
41838;DHT22;27511;52.042;5.178;2023-02-28T11:12:02;8.60;99.90
41838;DHT22;27511;52.042;5.178;2023-02-28T11:14:28;8.60;99.90
41838;DHT22;27511;52.042;5.178;2023-02-28T11:16:55;8.70;99.90
41838;DHT22;27511;52.042;5.178;2023-02-28T11:19:28;8.80;99.90
41838;DHT22;27511;52.042;5.178;2023-02-28T11:21:56;8.90;99.90
41838;DHT22;27511;52.042;5.178;2023-02-28T11:24:23;8.80;99.90
41838;DHT22;27511;52.042;5.178;2023-02-28T11:26:50;9.00;99.90
41838;DHT22;27511;52.042;5.178;2023-02-28T11:29:20;8.90;99.90
41838;DHT22;27511;52.042;5.178;2023-02-28T11:32:01;8.90;99.90
41838;DHT22;27511;52.042;5.178;2023-02-28T11:34:27;8.90;99.90
41838;DHT22;27511;52.042;5.178;2023-02-28T11:36:56;9.10;99.90
41838;DHT22;27511;52.042;5.178;2023-02-28T11:39:22;9.00;99.90
41838;DHT22;27511;52.042;5.178;2023-02-28T11:44:28;8.80;99.90
41838;DHT22;27511;52.042;5.178;2023-02-28T11:46:58;8.90;99.90
41838;DHT22;27511;52.042;5.178;2023-02-28T11:52:13;9.10;99.90
41838;DHT22;27511;52.042;5.178;2023-02-28T11:54:47;9.20;99.90
41838;DHT22;27511;52.042;5.178;2023-02-28T12:00:09;9.40;99.90
41838;DHT22;27511;52.042;5.178;2023-02-28T12:03:03;9.40;99.90
41838;DHT22;27511;52.042;5.178;2023-02-28T12:08:19;9.60;99.90
41838;DHT22;27511;52.042;5.178;2023-02-28T12:13:18;9.80;99.90
41838;DHT22;27511;52.042;5.178;2023-02-28T12:15:56;9.60;99.90
41838;DHT22;27511;52.042;5.178;2023-02-28T12:18:42;9.60;99.90
41838;DHT22;27511;52.042;5.178;2023-02-28T12:26:41;9.50;99.90
41838;DHT22;27511;52.042;5.178;2023-02-28T12:29:02;9.60;99.90
41838;DHT22;27511;52.042;5.178;2023-02-28T12:31:30;9.70;99.90
41838;DHT22;27511;52.042;5.178;2023-02-28T12:33:59;9.50;99.90
41838;DHT22;27511;52.042;5.178;2023-02-28T12:36:26;9.30;99.90
41838;DHT22;27511;52.042;5.178;2023-02-28T12:38:55;9.50;99.90
41838;DHT22;27511;52.042;5.178;2023-02-28T12:41:44;9.60;99.90
41838;DHT22;27511;52.042;5.178;2023-02-28T12:44:09;9.70;99.90
41838;DHT22;27511;52.042;5.178;2023-02-28T12:46:47;9.90;99.90
41838;DHT22;27511;52.042;5.178;2023-02-28T12:49:18;10.10;99.90
41838;DHT22;27511;52.042;5.178;2023-02-28T12:51:46;10.30;99.90
41838;DHT22;27511;52.042;5.178;2023-02-28T12:54:35;10.70;99.90
41838;DHT22;27511;52.042;5.178;2023-02-28T12:57:06;11.30;99.90
41838;DHT22;27511;52.042;5.178;2023-02-28T13:02:19;12.60;99.90
41838;DHT22;27511;52.042;5.178;2023-02-28T13:10:02;13.90;99.90
41838;DHT22;27511;52.042;5.178;2023-02-28T13:12:29;14.10;99.90
41838;DHT22;27511;52.042;5.178;2023-02-28T13:15:07;14.30;99.90
41838;DHT22;27511;52.042;5.178;2023-02-28T13:17:38;14.60;99.90
41838;DHT22;27511;52.042;5.178;2023-02-28T13:20:04;14.70;99.90
41838;DHT22;27511;52.042;5.178;2023-02-28T13:27:50;14.90;99.90
41838;DHT22;27511;52.042;5.178;2023-02-28T13:36:01;15.10;99.90
41838;DHT22;27511;52.042;5.178;2023-02-28T13:38:32;15.30;99.90
41838;DHT22;27511;52.042;5.178;2023-02-28T13:41:31;15.70;99.90
41838;DHT22;27511;52.042;5.178;2023-02-28T13:46:28;16.40;99.90
41838;DHT22;27511;52.042;5.178;2023-02-28T13:48:54;17.00;99.90
41838;DHT22;27511;52.042;5.178;2023-02-28T13:51:38;17.40;99.90
41838;DHT22;27511;52.042;5.178;2023-02-28T13:54:09;17.90;99.90
41838;DHT22;27511;52.042;5.178;2023-02-28T13:56:50;18.40;99.90
41838;DHT22;27511;52.042;5.178;2023-02-28T13:59:33;18.20;99.90
41838;DHT22;27511;52.042;5.178;2023-02-28T14:02:03;18.30;99.90
41838;DHT22;27511;52.042;5.178;2023-02-28T14:07:17;18.60;99.90
41838;DHT22;27511;52.042;5.178;2023-02-28T14:09:45;18.80;99.90
41838;DHT22;27511;52.042;5.178;2023-02-28T14:14:57;18.50;99.90
41838;DHT22;27511;52.042;5.178;2023-02-28T14:17:23;17.90;99.90
41838;DHT22;27511;52.042;5.178;2023-02-28T14:19:49;17.20;99.90
41838;DHT22;27511;52.042;5.178;2023-02-28T14:25:33;16.70;99.90
41838;DHT22;27511;52.042;5.178;2023-02-28T14:33:01;16.30;99.90
41838;DHT22;27511;52.042;5.178;2023-02-28T14:35:43;16.40;99.90
41838;DHT22;27511;52.042;5.178;2023-02-28T14:38:14;16.50;99.90
41838;DHT22;27511;52.042;5.178;2023-02-28T14:40:42;16.90;99.90
41838;DHT22;27511;52.042;5.178;2023-02-28T14:43:18;17.50;99.90
41838;DHT22;27511;52.042;5.178;2023-02-28T14:45:48;17.60;99.90
41838;DHT22;27511;52.042;5.178;2023-02-28T14:48:14;17.00;99.90
41838;DHT22;27511;52.042;5.178;2023-02-28T14:50:40;16.50;99.90
41838;DHT22;27511;52.042;5.178;2023-02-28T14:53:15;16.10;99.90
41838;DHT22;27511;52.042;5.178;2023-02-28T14:55:46;15.50;99.90
41838;DHT22;27511;52.042;5.178;2023-02-28T15:01:04;14.20;99.90
41838;DHT22;27511;52.042;5.178;2023-02-28T15:03:33;14.50;99.90
41838;DHT22;27511;52.042;5.178;2023-02-28T15:06:00;15.50;99.90
41838;DHT22;27511;52.042;5.178;2023-02-28T15:08:26;16.40;99.90
41838;DHT22;27511;52.042;5.178;2023-02-28T15:11:04;16.60;99.90
41838;DHT22;27511;52.042;5.178;2023-02-28T15:16:13;15.80;99.90
41838;DHT22;27511;52.042;5.178;2023-02-28T15:18:46;15.40;99.90
41838;DHT22;27511;52.042;5.178;2023-02-28T15:21:17;15.20;99.90
41838;DHT22;27511;52.042;5.178;2023-02-28T15:23:46;14.90;99.90
41838;DHT22;27511;52.042;5.178;2023-02-28T15:26:15;14.50;99.90
41838;DHT22;27511;52.042;5.178;2023-02-28T15:28:42;14.40;99.90
41838;DHT22;27511;52.042;5.178;2023-02-28T15:31:25;13.80;99.90
41838;DHT22;27511;52.042;5.178;2023-02-28T15:33:52;13.30;99.90
41838;DHT22;27511;52.042;5.178;2023-02-28T15:36:18;12.50;99.90
41838;DHT22;27511;52.042;5.178;2023-02-28T15:38:46;12.10;99.90
41838;DHT22;27511;52.042;5.178;2023-02-28T15:41:25;11.50;99.90
41838;DHT22;27511;52.042;5.178;2023-02-28T15:44:13;11.40;99.90
41838;DHT22;27511;52.042;5.178;2023-02-28T15:46:36;11.40;99.90
41838;DHT22;27511;52.042;5.178;2023-02-28T15:49:16;11.30;99.90
41838;DHT22;27511;52.042;5.178;2023-02-28T15:51:43;11.20;99.90
41838;DHT22;27511;52.042;5.178;2023-02-28T15:54:12;11.10;99.90
41838;DHT22;27511;52.042;5.178;2023-02-28T15:56:43;11.10;99.90
41838;DHT22;27511;52.042;5.178;2023-02-28T15:59:28;10.90;99.90
41838;DHT22;27511;52.042;5.178;2023-02-28T16:04:35;10.80;99.90
41838;DHT22;27511;52.042;5.178;2023-02-28T16:07:02;10.90;99.90
41838;DHT22;27511;52.042;5.178;2023-02-28T16:09:31;10.90;99.90
41838;DHT22;27511;52.042;5.178;2023-02-28T16:12:00;10.80;99.90
41838;DHT22;27511;52.042;5.178;2023-02-28T16:14:27;10.90;99.90
41838;DHT22;27511;52.042;5.178;2023-02-28T16:17:05;10.80;99.90
41838;DHT22;27511;52.042;5.178;2023-02-28T16:19:31;10.80;99.90
41838;DHT22;27511;52.042;5.178;2023-02-28T16:21:59;10.60;99.90
41838;DHT22;27511;52.042;5.178;2023-02-28T16:24:25;10.50;99.90
41838;DHT22;27511;52.042;5.178;2023-02-28T16:26:51;10.50;99.90
41838;DHT22;27511;52.042;5.178;2023-02-28T16:29:28;10.60;99.90
41838;DHT22;27511;52.042;5.178;2023-02-28T16:31:55;10.70;99.90
41838;DHT22;27511;52.042;5.178;2023-02-28T16:34:20;10.50;99.90
41838;DHT22;27511;52.042;5.178;2023-02-28T16:36:47;10.40;99.90
41838;DHT22;27511;52.042;5.178;2023-02-28T16:39:12;10.40;99.90
41838;DHT22;27511;52.042;5.178;2023-02-28T16:41:38;10.20;99.90
41838;DHT22;27511;52.042;5.178;2023-02-28T16:44:09;9.90;99.90
41838;DHT22;27511;52.042;5.178;2023-02-28T16:46:38;10.00;99.90
41838;DHT22;27511;52.042;5.178;2023-02-28T16:49:04;10.00;99.90
41838;DHT22;27511;52.042;5.178;2023-02-28T16:51:29;10.20;99.90
41838;DHT22;27511;52.042;5.178;2023-02-28T16:53:55;10.00;99.90
41838;DHT22;27511;52.042;5.178;2023-02-28T16:56:29;9.90;99.90
41838;DHT22;27511;52.042;5.178;2023-02-28T16:58:55;10.00;99.90
41838;DHT22;27511;52.042;5.178;2023-02-28T17:01:23;9.90;99.90
41838;DHT22;27511;52.042;5.178;2023-02-28T17:03:51;9.80;99.90
41838;DHT22;27511;52.042;5.178;2023-02-28T17:06:32;9.80;99.90
41838;DHT22;27511;52.042;5.178;2023-02-28T17:09:00;9.80;99.90
41838;DHT22;27511;52.042;5.178;2023-02-28T17:11:28;9.70;99.90
41838;DHT22;27511;52.042;5.178;2023-02-28T17:13:57;9.70;99.90
41838;DHT22;27511;52.042;5.178;2023-02-28T17:16:27;9.60;99.90
41838;DHT22;27511;52.042;5.178;2023-02-28T17:18:54;9.70;99.90
41838;DHT22;27511;52.042;5.178;2023-02-28T17:21:24;9.60;99.90
41838;DHT22;27511;52.042;5.178;2023-02-28T17:23:56;9.60;99.90
41838;DHT22;27511;52.042;5.178;2023-02-28T17:26:28;9.60;99.90
41838;DHT22;27511;52.042;5.178;2023-02-28T17:28:57;9.50;99.90
41838;DHT22;27511;52.042;5.178;2023-02-28T17:31:37;9.50;99.90
41838;DHT22;27511;52.042;5.178;2023-02-28T17:34:03;9.30;99.90
41838;DHT22;27511;52.042;5.178;2023-02-28T17:36:29;9.30;99.90
41838;DHT22;27511;52.042;5.178;2023-02-28T17:38:58;9.20;99.90
41838;DHT22;27511;52.042;5.178;2023-02-28T17:41:24;9.10;99.90
41838;DHT22;27511;52.042;5.178;2023-02-28T17:43:54;9.10;99.90
41838;DHT22;27511;52.042;5.178;2023-02-28T17:46:22;9.00;99.90